sensor_id;sensor_type;location;lat;lon;timestamp;P1;durP1;ratioP1;P2;durP2;ratioP2
9160;SDS011;4615;51.340;8.288;2023-12-20T00:01:58;3.25;;;3.05;;
9160;SDS011;4615;51.340;8.288;2023-12-20T00:04:24;3.45;;;3.15;;
9160;SDS011;4615;51.340;8.288;2023-12-20T00:06:51;3.20;;;2.90;;
9160;SDS011;4615;51.340;8.288;2023-12-20T00:09:17;3.20;;;2.90;;
9160;SDS011;4615;51.340;8.288;2023-12-20T00:11:43;3.30;;;3.00;;
9160;SDS011;4615;51.340;8.288;2023-12-20T00:14:12;3.10;;;2.90;;
9160;SDS011;4615;51.340;8.288;2023-12-20T00:16:38;3.88;;;3.58;;
9160;SDS011;4615;51.340;8.288;2023-12-20T00:19:05;3.35;;;3.05;;
9160;SDS011;4615;51.340;8.288;2023-12-20T00:21:32;3.67;;;3.38;;
9160;SDS011;4615;51.340;8.288;2023-12-20T00:23:59;3.60;;;3.30;;
9160;SDS011;4615;51.340;8.288;2023-12-20T00:26:25;4.00;;;3.70;;
9160;SDS011;4615;51.340;8.288;2023-12-20T00:28:53;3.80;;;3.50;;
9160;SDS011;4615;51.340;8.288;2023-12-20T00:31:20;4.50;;;4.20;;
9160;SDS011;4615;51.340;8.288;2023-12-20T00:33:47;4.82;;;4.43;;
9160;SDS011;4615;51.340;8.288;2023-12-20T00:36:13;4.45;;;4.05;;
9160;SDS011;4615;51.340;8.288;2023-12-20T00:38:39;5.28;;;4.78;;
9160;SDS011;4615;51.340;8.288;2023-12-20T00:41:06;4.85;;;4.45;;
9160;SDS011;4615;51.340;8.288;2023-12-20T00:43:32;6.20;;;5.70;;
9160;SDS011;4615;51.340;8.288;2023-12-20T00:45:58;6.40;;;5.90;;
9160;SDS011;4615;51.340;8.288;2023-12-20T00:48:27;6.55;;;5.95;;
9160;SDS011;4615;51.340;8.288;2023-12-20T00:50:55;7.95;;;7.35;;
9160;SDS011;4615;51.340;8.288;2023-12-20T00:53:21;7.70;;;7.10;;
9160;SDS011;4615;51.340;8.288;2023-12-20T00:55:48;8.40;;;7.60;;
9160;SDS011;4615;51.340;8.288;2023-12-20T00:58:15;8.10;;;7.40;;
9160;SDS011;4615;51.340;8.288;2023-12-20T01:00:42;9.02;;;8.25;;
9160;SDS011;4615;51.340;8.288;2023-12-20T01:03:09;9.98;;;9.07;;
9160;SDS011;4615;51.340;8.288;2023-12-20T01:05:36;9.00;;;8.20;;
9160;SDS011;4615;51.340;8.288;2023-12-20T01:08:03;9.48;;;8.68;;
9160;SDS011;4615;51.340;8.288;2023-12-20T01:10:29;10.13;;;9.23;;
9160;SDS011;4615;51.340;8.288;2023-12-20T01:12:56;9.15;;;8.35;;
9160;SDS011;4615;51.340;8.288;2023-12-20T01:15:22;7.38;;;6.78;;
9160;SDS011;4615;51.340;8.288;2023-12-20T01:17:48;7.75;;;6.90;;
9160;SDS011;4615;51.340;8.288;2023-12-20T01:20:15;6.55;;;5.55;;
9160;SDS011;4615;51.340;8.288;2023-12-20T01:22:43;5.00;;;4.50;;
9160;SDS011;4615;51.340;8.288;2023-12-20T01:25:11;5.22;;;4.68;;
9160;SDS011;4615;51.340;8.288;2023-12-20T01:27:37;5.07;;;4.57;;
9160;SDS011;4615;51.340;8.288;2023-12-20T01:30:04;5.43;;;4.90;;
9160;SDS011;4615;51.340;8.288;2023-12-20T01:32:30;5.50;;;5.00;;
9160;SDS011;4615;51.340;8.288;2023-12-20T01:34:57;5.75;;;5.10;;
9160;SDS011;4615;51.340;8.288;2023-12-20T01:37:23;5.17;;;4.67;;
9160;SDS011;4615;51.340;8.288;2023-12-20T01:39:51;8.00;;;5.45;;
9160;SDS011;4615;51.340;8.288;2023-12-20T01:42:18;4.68;;;4.28;;
9160;SDS011;4615;51.340;8.288;2023-12-20T01:44:44;5.60;;;4.68;;
9160;SDS011;4615;51.340;8.288;2023-12-20T01:47:10;5.30;;;4.50;;
9160;SDS011;4615;51.340;8.288;2023-12-20T01:49:37;5.75;;;5.05;;
9160;SDS011;4615;51.340;8.288;2023-12-20T01:52:03;7.22;;;5.20;;
9160;SDS011;4615;51.340;8.288;2023-12-20T01:54:30;5.45;;;4.80;;
9160;SDS011;4615;51.340;8.288;2023-12-20T01:56:58;6.50;;;5.03;;
9160;SDS011;4615;51.340;8.288;2023-12-20T01:59:25;6.57;;;5.33;;
9160;SDS011;4615;51.340;8.288;2023-12-20T02:01:52;6.45;;;4.85;;
9160;SDS011;4615;51.340;8.288;2023-12-20T02:04:18;5.85;;;5.28;;
9160;SDS011;4615;51.340;8.288;2023-12-20T02:06:45;8.52;;;6.00;;
9160;SDS011;4615;51.340;8.288;2023-12-20T02:09:12;7.25;;;6.00;;
9160;SDS011;4615;51.340;8.288;2023-12-20T02:11:38;8.02;;;6.20;;
9160;SDS011;4615;51.340;8.288;2023-12-20T02:14:06;6.90;;;5.95;;
9160;SDS011;4615;51.340;8.288;2023-12-20T02:16:32;6.38;;;5.45;;
9160;SDS011;4615;51.340;8.288;2023-12-20T02:18:59;7.90;;;6.00;;
9160;SDS011;4615;51.340;8.288;2023-12-20T02:21:26;6.55;;;5.25;;
9160;SDS011;4615;51.340;8.288;2023-12-20T02:23:57;7.93;;;5.47;;
9160;SDS011;4615;51.340;8.288;2023-12-20T02:26:24;6.35;;;4.90;;
9160;SDS011;4615;51.340;8.288;2023-12-20T02:28:50;7.85;;;5.20;;
9160;SDS011;4615;51.340;8.288;2023-12-20T02:31:16;7.72;;;4.47;;
9160;SDS011;4615;51.340;8.288;2023-12-20T02:33:43;8.23;;;4.30;;
9160;SDS011;4615;51.340;8.288;2023-12-20T02:36:09;7.38;;;4.57;;
9160;SDS011;4615;51.340;8.288;2023-12-20T02:38:37;7.40;;;4.40;;
9160;SDS011;4615;51.340;8.288;2023-12-20T02:41:03;8.23;;;4.28;;
9160;SDS011;4615;51.340;8.288;2023-12-20T02:43:29;6.85;;;4.30;;
9160;SDS011;4615;51.340;8.288;2023-12-20T02:45:56;8.45;;;4.43;;
9160;SDS011;4615;51.340;8.288;2023-12-20T02:48:22;7.63;;;4.13;;
9160;SDS011;4615;51.340;8.288;2023-12-20T02:50:48;6.20;;;3.97;;
9160;SDS011;4615;51.340;8.288;2023-12-20T02:53:15;6.45;;;3.60;;
9160;SDS011;4615;51.340;8.288;2023-12-20T02:55:42;7.95;;;3.70;;
9160;SDS011;4615;51.340;8.288;2023-12-20T02:58:09;7.32;;;3.60;;
9160;SDS011;4615;51.340;8.288;2023-12-20T03:00:35;6.60;;;3.30;;
9160;SDS011;4615;51.340;8.288;2023-12-20T03:03:02;5.93;;;3.30;;
9160;SDS011;4615;51.340;8.288;2023-12-20T03:05:28;7.45;;;3.70;;
9160;SDS011;4615;51.340;8.288;2023-12-20T03:07:54;6.47;;;3.80;;
9160;SDS011;4615;51.340;8.288;2023-12-20T03:10:21;7.45;;;3.95;;
9160;SDS011;4615;51.340;8.288;2023-12-20T03:12:48;8.30;;;4.28;;
9160;SDS011;4615;51.340;8.288;2023-12-20T03:15:15;6.93;;;3.60;;
9160;SDS011;4615;51.340;8.288;2023-12-20T03:17:41;8.80;;;3.90;;
9160;SDS011;4615;51.340;8.288;2023-12-20T03:20:08;6.53;;;4.07;;
9160;SDS011;4615;51.340;8.288;2023-12-20T03:22:34;7.07;;;4.38;;
9160;SDS011;4615;51.340;8.288;2023-12-20T03:25:01;6.03;;;4.50;;
9160;SDS011;4615;51.340;8.288;2023-12-20T03:27:28;7.35;;;3.92;;
9160;SDS011;4615;51.340;8.288;2023-12-20T03:29:55;7.85;;;3.55;;
9160;SDS011;4615;51.340;8.288;2023-12-20T03:32:22;6.55;;;3.65;;
9160;SDS011;4615;51.340;8.288;2023-12-20T03:34:48;4.80;;;3.20;;
9160;SDS011;4615;51.340;8.288;2023-12-20T03:37:14;6.70;;;3.20;;
9160;SDS011;4615;51.340;8.288;2023-12-20T03:39:41;6.32;;;3.10;;
9160;SDS011;4615;51.340;8.288;2023-12-20T03:42:07;7.00;;;3.03;;
9160;SDS011;4615;51.340;8.288;2023-12-20T03:44:33;5.28;;;3.00;;
9160;SDS011;4615;51.340;8.288;2023-12-20T03:47:01;6.13;;;2.88;;
9160;SDS011;4615;51.340;8.288;2023-12-20T03:49:27;5.60;;;3.00;;
9160;SDS011;4615;51.340;8.288;2023-12-20T03:51:54;6.95;;;2.90;;
9160;SDS011;4615;51.340;8.288;2023-12-20T03:54:20;7.55;;;2.85;;
9160;SDS011;4615;51.340;8.288;2023-12-20T03:56:46;6.40;;;2.70;;
9160;SDS011;4615;51.340;8.288;2023-12-20T03:59:13;8.25;;;2.97;;
9160;SDS011;4615;51.340;8.288;2023-12-20T04:01:42;7.05;;;2.92;;
9160;SDS011;4615;51.340;8.288;2023-12-20T04:04:10;7.35;;;2.90;;
9160;SDS011;4615;51.340;8.288;2023-12-20T04:06:37;5.93;;;2.80;;
9160;SDS011;4615;51.340;8.288;2023-12-20T04:09:03;6.45;;;2.90;;
9160;SDS011;4615;51.340;8.288;2023-12-20T04:11:30;5.03;;;2.60;;
9160;SDS011;4615;51.340;8.288;2023-12-20T04:13:56;4.47;;;2.90;;
9160;SDS011;4615;51.340;8.288;2023-12-20T04:16:23;8.00;;;3.35;;
9160;SDS011;4615;51.340;8.288;2023-12-20T04:18:49;7.90;;;3.70;;
9160;SDS011;4615;51.340;8.288;2023-12-20T04:21:17;5.53;;;3.30;;
9160;SDS011;4615;51.340;8.288;2023-12-20T04:23:43;5.35;;;3.10;;
9160;SDS011;4615;51.340;8.288;2023-12-20T04:26:10;6.90;;;3.47;;
9160;SDS011;4615;51.340;8.288;2023-12-20T04:28:36;7.13;;;3.80;;
9160;SDS011;4615;51.340;8.288;2023-12-20T04:31:03;7.22;;;3.90;;
9160;SDS011;4615;51.340;8.288;2023-12-20T04:33:29;8.90;;;4.47;;
9160;SDS011;4615;51.340;8.288;2023-12-20T04:35:55;6.63;;;3.90;;
9160;SDS011;4615;51.340;8.288;2023-12-20T04:38:24;8.50;;;4.05;;
9160;SDS011;4615;51.340;8.288;2023-12-20T04:40:50;6.77;;;4.23;;
9160;SDS011;4615;51.340;8.288;2023-12-20T04:43:16;8.48;;;4.45;;
9160;SDS011;4615;51.340;8.288;2023-12-20T04:45:43;7.70;;;3.85;;
9160;SDS011;4615;51.340;8.288;2023-12-20T04:48:09;9.43;;;3.95;;
9160;SDS011;4615;51.340;8.288;2023-12-20T04:50:36;9.57;;;4.18;;
9160;SDS011;4615;51.340;8.288;2023-12-20T04:53:02;8.90;;;4.13;;
9160;SDS011;4615;51.340;8.288;2023-12-20T04:55:30;11.47;;;4.67;;
9160;SDS011;4615;51.340;8.288;2023-12-20T04:57:57;8.70;;;4.23;;
9160;SDS011;4615;51.340;8.288;2023-12-20T05:00:23;7.53;;;3.72;;
9160;SDS011;4615;51.340;8.288;2023-12-20T05:02:50;7.53;;;3.75;;
9160;SDS011;4615;51.340;8.288;2023-12-20T05:05:16;9.63;;;3.75;;
9160;SDS011;4615;51.340;8.288;2023-12-20T05:07:43;9.20;;;3.97;;
9160;SDS011;4615;51.340;8.288;2023-12-20T05:10:09;7.70;;;3.67;;
9160;SDS011;4615;51.340;8.288;2023-12-20T05:12:37;10.33;;;4.10;;
9160;SDS011;4615;51.340;8.288;2023-12-20T05:15:04;12.33;;;4.10;;
9160;SDS011;4615;51.340;8.288;2023-12-20T05:17:31;9.38;;;3.70;;
9160;SDS011;4615;51.340;8.288;2023-12-20T05:19:57;7.82;;;3.15;;
9160;SDS011;4615;51.340;8.288;2023-12-20T05:22:23;11.97;;;3.67;;
9160;SDS011;4615;51.340;8.288;2023-12-20T05:24:50;9.38;;;3.30;;
9160;SDS011;4615;51.340;8.288;2023-12-20T05:27:16;11.63;;;3.40;;
9160;SDS011;4615;51.340;8.288;2023-12-20T05:29:44;11.43;;;3.63;;
9160;SDS011;4615;51.340;8.288;2023-12-20T05:32:10;7.50;;;3.20;;
9160;SDS011;4615;51.340;8.288;2023-12-20T05:34:37;8.48;;;3.40;;
9160;SDS011;4615;51.340;8.288;2023-12-20T05:37:03;9.65;;;3.33;;
9160;SDS011;4615;51.340;8.288;2023-12-20T05:39:30;10.50;;;3.63;;
9160;SDS011;4615;51.340;8.288;2023-12-20T05:41:56;10.02;;;4.03;;
9160;SDS011;4615;51.340;8.288;2023-12-20T05:44:22;9.52;;;3.80;;
9160;SDS011;4615;51.340;8.288;2023-12-20T05:46:50;10.63;;;3.80;;
9160;SDS011;4615;51.340;8.288;2023-12-20T05:49:17;8.83;;;3.57;;
9160;SDS011;4615;51.340;8.288;2023-12-20T05:51:43;10.55;;;4.03;;
9160;SDS011;4615;51.340;8.288;2023-12-20T05:54:09;13.68;;;4.05;;
9160;SDS011;4615;51.340;8.288;2023-12-20T05:56:36;8.45;;;3.92;;
9160;SDS011;4615;51.340;8.288;2023-12-20T05:59:02;10.15;;;4.10;;
9160;SDS011;4615;51.340;8.288;2023-12-20T06:01:28;7.70;;;4.00;;
9160;SDS011;4615;51.340;8.288;2023-12-20T06:03:56;8.95;;;4.18;;
9160;SDS011;4615;51.340;8.288;2023-12-20T06:06:22;10.38;;;4.30;;
9160;SDS011;4615;51.340;8.288;2023-12-20T06:08:49;9.45;;;4.28;;
9160;SDS011;4615;51.340;8.288;2023-12-20T06:11:15;11.33;;;4.90;;
9160;SDS011;4615;51.340;8.288;2023-12-20T06:13:41;12.60;;;4.40;;
9160;SDS011;4615;51.340;8.288;2023-12-20T06:16:08;11.65;;;4.70;;
9160;SDS011;4615;51.340;8.288;2023-12-20T06:18:34;12.80;;;4.97;;
9160;SDS011;4615;51.340;8.288;2023-12-20T06:21:03;10.25;;;4.90;;
9160;SDS011;4615;51.340;8.288;2023-12-20T06:23:29;12.00;;;5.07;;
9160;SDS011;4615;51.340;8.288;2023-12-20T06:25:56;12.48;;;5.28;;
9160;SDS011;4615;51.340;8.288;2023-12-20T06:28:22;12.30;;;5.03;;
9160;SDS011;4615;51.340;8.288;2023-12-20T06:30:48;10.52;;;4.90;;
9160;SDS011;4615;51.340;8.288;2023-12-20T06:33:17;10.77;;;4.82;;
9160;SDS011;4615;51.340;8.288;2023-12-20T06:35:47;14.10;;;4.70;;
9160;SDS011;4615;51.340;8.288;2023-12-20T06:38:15;12.40;;;5.18;;
9160;SDS011;4615;51.340;8.288;2023-12-20T06:40:41;10.67;;;4.90;;
9160;SDS011;4615;51.340;8.288;2023-12-20T06:43:08;9.27;;;4.20;;
9160;SDS011;4615;51.340;8.288;2023-12-20T06:45:34;12.60;;;5.40;;
9160;SDS011;4615;51.340;8.288;2023-12-20T06:48:00;10.38;;;4.63;;
9160;SDS011;4615;51.340;8.288;2023-12-20T06:50:27;10.53;;;4.43;;
9160;SDS011;4615;51.340;8.288;2023-12-20T06:52:53;13.48;;;5.18;;
9160;SDS011;4615;51.340;8.288;2023-12-20T06:55:21;11.65;;;5.15;;
9160;SDS011;4615;51.340;8.288;2023-12-20T06:57:48;12.23;;;5.03;;
9160;SDS011;4615;51.340;8.288;2023-12-20T07:00:14;11.30;;;5.00;;
9160;SDS011;4615;51.340;8.288;2023-12-20T07:02:41;12.88;;;5.28;;
9160;SDS011;4615;51.340;8.288;2023-12-20T07:05:07;11.73;;;5.03;;
9160;SDS011;4615;51.340;8.288;2023-12-20T07:07:34;11.20;;;5.07;;
9160;SDS011;4615;51.340;8.288;2023-12-20T07:10:00;15.80;;;5.53;;
9160;SDS011;4615;51.340;8.288;2023-12-20T07:12:28;10.70;;;4.43;;
9160;SDS011;4615;51.340;8.288;2023-12-20T07:14:54;11.03;;;4.70;;
9160;SDS011;4615;51.340;8.288;2023-12-20T07:17:21;12.40;;;4.70;;
9160;SDS011;4615;51.340;8.288;2023-12-20T07:19:48;11.87;;;4.10;;
9160;SDS011;4615;51.340;8.288;2023-12-20T07:22:14;13.00;;;4.30;;
9160;SDS011;4615;51.340;8.288;2023-12-20T07:24:40;9.40;;;3.50;;
9160;SDS011;4615;51.340;8.288;2023-12-20T07:27:07;13.10;;;3.97;;
9160;SDS011;4615;51.340;8.288;2023-12-20T07:29:34;12.25;;;4.35;;
9160;SDS011;4615;51.340;8.288;2023-12-20T07:32:01;11.00;;;3.47;;
9160;SDS011;4615;51.340;8.288;2023-12-20T07:34:27;9.87;;;3.73;;
9160;SDS011;4615;51.340;8.288;2023-12-20T07:36:53;11.15;;;3.80;;
9160;SDS011;4615;51.340;8.288;2023-12-20T07:39:20;10.15;;;3.88;;
9160;SDS011;4615;51.340;8.288;2023-12-20T07:41:46;12.45;;;4.35;;
9160;SDS011;4615;51.340;8.288;2023-12-20T07:44:12;12.25;;;4.10;;
9160;SDS011;4615;51.340;8.288;2023-12-20T07:46:42;10.32;;;3.83;;
9160;SDS011;4615;51.340;8.288;2023-12-20T07:49:08;9.05;;;3.92;;
9160;SDS011;4615;51.340;8.288;2023-12-20T07:51:35;11.68;;;4.32;;
9160;SDS011;4615;51.340;8.288;2023-12-20T07:54:01;11.13;;;4.00;;
9160;SDS011;4615;51.340;8.288;2023-12-20T07:56:28;11.07;;;3.70;;
9160;SDS011;4615;51.340;8.288;2023-12-20T07:58:54;11.88;;;4.00;;
9160;SDS011;4615;51.340;8.288;2023-12-20T08:01:21;11.55;;;4.00;;
9160;SDS011;4615;51.340;8.288;2023-12-20T08:03:49;11.45;;;3.92;;
9160;SDS011;4615;51.340;8.288;2023-12-20T08:06:16;9.80;;;4.00;;
9160;SDS011;4615;51.340;8.288;2023-12-20T08:08:44;12.85;;;4.15;;
9160;SDS011;4615;51.340;8.288;2023-12-20T08:11:10;11.23;;;4.10;;
9160;SDS011;4615;51.340;8.288;2023-12-20T08:13:37;12.13;;;4.35;;
9160;SDS011;4615;51.340;8.288;2023-12-20T08:16:04;9.73;;;3.90;;
9160;SDS011;4615;51.340;8.288;2023-12-20T08:18:30;12.50;;;4.47;;
9160;SDS011;4615;51.340;8.288;2023-12-20T08:20:58;10.88;;;4.13;;
9160;SDS011;4615;51.340;8.288;2023-12-20T08:23:25;10.55;;;4.28;;
9160;SDS011;4615;51.340;8.288;2023-12-20T08:25:51;10.15;;;4.00;;
9160;SDS011;4615;51.340;8.288;2023-12-20T08:28:17;12.40;;;4.30;;
9160;SDS011;4615;51.340;8.288;2023-12-20T08:30:44;10.40;;;4.05;;
9160;SDS011;4615;51.340;8.288;2023-12-20T08:33:10;8.75;;;3.88;;
9160;SDS011;4615;51.340;8.288;2023-12-20T08:35:38;11.43;;;4.32;;
9160;SDS011;4615;51.340;8.288;2023-12-20T08:38:05;9.55;;;4.03;;
9160;SDS011;4615;51.340;8.288;2023-12-20T08:40:32;10.40;;;3.90;;
9160;SDS011;4615;51.340;8.288;2023-12-20T08:42:58;11.57;;;4.25;;
9160;SDS011;4615;51.340;8.288;2023-12-20T08:45:25;9.50;;;4.10;;
9160;SDS011;4615;51.340;8.288;2023-12-20T08:47:51;8.43;;;4.13;;
9160;SDS011;4615;51.340;8.288;2023-12-20T08:50:17;10.07;;;4.18;;
9160;SDS011;4615;51.340;8.288;2023-12-20T08:52:44;7.95;;;4.10;;
9160;SDS011;4615;51.340;8.288;2023-12-20T08:55:11;11.63;;;4.10;;
9160;SDS011;4615;51.340;8.288;2023-12-20T08:57:38;11.53;;;4.30;;
9160;SDS011;4615;51.340;8.288;2023-12-20T09:00:04;12.13;;;4.15;;
9160;SDS011;4615;51.340;8.288;2023-12-20T09:02:32;9.05;;;4.05;;
9160;SDS011;4615;51.340;8.288;2023-12-20T09:05:01;11.20;;;4.30;;
9160;SDS011;4615;51.340;8.288;2023-12-20T09:07:27;9.23;;;4.10;;
9160;SDS011;4615;51.340;8.288;2023-12-20T09:09:55;9.60;;;3.95;;
9160;SDS011;4615;51.340;8.288;2023-12-20T09:12:23;9.75;;;3.75;;
9160;SDS011;4615;51.340;8.288;2023-12-20T09:14:50;12.27;;;4.05;;
9160;SDS011;4615;51.340;8.288;2023-12-20T09:17:16;9.63;;;3.90;;
9160;SDS011;4615;51.340;8.288;2023-12-20T09:19:43;8.93;;;3.72;;
9160;SDS011;4615;51.340;8.288;2023-12-20T09:22:09;9.20;;;3.72;;
9160;SDS011;4615;51.340;8.288;2023-12-20T09:24:36;9.57;;;3.70;;
9160;SDS011;4615;51.340;8.288;2023-12-20T09:27:03;8.10;;;3.67;;
9160;SDS011;4615;51.340;8.288;2023-12-20T09:29:31;8.77;;;3.78;;
9160;SDS011;4615;51.340;8.288;2023-12-20T09:31:58;9.20;;;3.90;;
9160;SDS011;4615;51.340;8.288;2023-12-20T09:34:24;9.98;;;3.92;;
9160;SDS011;4615;51.340;8.288;2023-12-20T09:36:52;8.52;;;3.90;;
9160;SDS011;4615;51.340;8.288;2023-12-20T09:39:18;8.32;;;3.90;;
9160;SDS011;4615;51.340;8.288;2023-12-20T09:41:45;10.40;;;4.10;;
9160;SDS011;4615;51.340;8.288;2023-12-20T09:44:14;10.20;;;3.85;;
9160;SDS011;4615;51.340;8.288;2023-12-20T09:46:45;9.07;;;4.38;;
9160;SDS011;4615;51.340;8.288;2023-12-20T09:49:12;7.82;;;3.85;;
9160;SDS011;4615;51.340;8.288;2023-12-20T09:51:39;11.70;;;4.07;;
9160;SDS011;4615;51.340;8.288;2023-12-20T09:54:05;8.90;;;3.95;;
9160;SDS011;4615;51.340;8.288;2023-12-20T09:56:32;10.52;;;4.00;;
9160;SDS011;4615;51.340;8.288;2023-12-20T09:58:59;8.85;;;3.85;;
9160;SDS011;4615;51.340;8.288;2023-12-20T10:01:25;11.68;;;4.07;;
9160;SDS011;4615;51.340;8.288;2023-12-20T10:03:54;9.75;;;3.85;;
9160;SDS011;4615;51.340;8.288;2023-12-20T10:06:21;8.70;;;4.00;;
9160;SDS011;4615;51.340;8.288;2023-12-20T10:08:47;10.75;;;3.90;;
9160;SDS011;4615;51.340;8.288;2023-12-20T10:11:14;9.70;;;3.78;;
9160;SDS011;4615;51.340;8.288;2023-12-20T10:13:40;9.85;;;3.92;;
9160;SDS011;4615;51.340;8.288;2023-12-20T10:16:07;7.90;;;3.47;;
9160;SDS011;4615;51.340;8.288;2023-12-20T10:18:33;11.93;;;4.20;;
9160;SDS011;4615;51.340;8.288;2023-12-20T10:21:02;12.38;;;4.10;;
9160;SDS011;4615;51.340;8.288;2023-12-20T10:23:28;8.98;;;3.25;;
9160;SDS011;4615;51.340;8.288;2023-12-20T10:25:56;11.57;;;3.92;;
9160;SDS011;4615;51.340;8.288;2023-12-20T10:28:22;11.07;;;3.72;;
9160;SDS011;4615;51.340;8.288;2023-12-20T10:30:52;7.88;;;3.40;;
9160;SDS011;4615;51.340;8.288;2023-12-20T10:33:24;9.63;;;3.40;;
9160;SDS011;4615;51.340;8.288;2023-12-20T10:35:50;11.20;;;3.65;;
9160;SDS011;4615;51.340;8.288;2023-12-20T10:38:19;11.13;;;3.88;;
9160;SDS011;4615;51.340;8.288;2023-12-20T10:40:45;8.95;;;3.50;;
9160;SDS011;4615;51.340;8.288;2023-12-20T10:43:12;11.18;;;3.50;;
9160;SDS011;4615;51.340;8.288;2023-12-20T10:45:38;9.82;;;3.53;;
9160;SDS011;4615;51.340;8.288;2023-12-20T10:48:05;8.88;;;3.42;;
9160;SDS011;4615;51.340;8.288;2023-12-20T10:50:31;11.32;;;3.90;;
9160;SDS011;4615;51.340;8.288;2023-12-20T10:52:58;10.47;;;3.33;;
9160;SDS011;4615;51.340;8.288;2023-12-20T10:55:26;8.65;;;3.38;;
9160;SDS011;4615;51.340;8.288;2023-12-20T10:57:52;8.55;;;3.45;;
9160;SDS011;4615;51.340;8.288;2023-12-20T11:00:23;7.70;;;3.25;;
9160;SDS011;4615;51.340;8.288;2023-12-20T11:02:50;8.90;;;3.63;;
9160;SDS011;4615;51.340;8.288;2023-12-20T11:05:20;8.32;;;3.67;;
9160;SDS011;4615;51.340;8.288;2023-12-20T11:07:49;9.32;;;3.38;;
9160;SDS011;4615;51.340;8.288;2023-12-20T11:10:19;9.82;;;3.72;;
9160;SDS011;4615;51.340;8.288;2023-12-20T11:12:49;11.20;;;4.05;;
9160;SDS011;4615;51.340;8.288;2023-12-20T11:15:17;10.75;;;3.75;;
9160;SDS011;4615;51.340;8.288;2023-12-20T11:17:44;10.38;;;3.70;;
9160;SDS011;4615;51.340;8.288;2023-12-20T11:20:11;9.77;;;3.63;;
9160;SDS011;4615;51.340;8.288;2023-12-20T11:22:38;8.77;;;3.63;;
9160;SDS011;4615;51.340;8.288;2023-12-20T11:25:07;7.15;;;3.13;;
9160;SDS011;4615;51.340;8.288;2023-12-20T11:27:34;8.73;;;3.35;;
9160;SDS011;4615;51.340;8.288;2023-12-20T11:30:04;10.23;;;3.60;;
9160;SDS011;4615;51.340;8.288;2023-12-20T11:32:33;7.20;;;3.60;;
9160;SDS011;4615;51.340;8.288;2023-12-20T11:35:00;9.70;;;3.40;;
9160;SDS011;4615;51.340;8.288;2023-12-20T11:37:30;8.90;;;3.70;;
9160;SDS011;4615;51.340;8.288;2023-12-20T11:40:00;8.88;;;3.75;;
9160;SDS011;4615;51.340;8.288;2023-12-20T11:42:27;10.07;;;4.07;;
9160;SDS011;4615;51.340;8.288;2023-12-20T11:44:53;9.00;;;3.60;;
9160;SDS011;4615;51.340;8.288;2023-12-20T11:47:23;7.82;;;3.50;;
9160;SDS011;4615;51.340;8.288;2023-12-20T11:49:50;7.68;;;3.47;;
9160;SDS011;4615;51.340;8.288;2023-12-20T11:52:16;9.15;;;4.03;;
9160;SDS011;4615;51.340;8.288;2023-12-20T11:54:43;9.87;;;3.90;;
9160;SDS011;4615;51.340;8.288;2023-12-20T11:57:09;9.70;;;4.22;;
9160;SDS011;4615;51.340;8.288;2023-12-20T11:59:36;8.00;;;3.58;;
9160;SDS011;4615;51.340;8.288;2023-12-20T12:02:02;9.00;;;3.77;;
9160;SDS011;4615;51.340;8.288;2023-12-20T12:04:30;9.02;;;4.03;;
9160;SDS011;4615;51.340;8.288;2023-12-20T12:06:56;8.50;;;3.92;;
9160;SDS011;4615;51.340;8.288;2023-12-20T12:09:22;8.02;;;3.50;;
9160;SDS011;4615;51.340;8.288;2023-12-20T12:11:49;6.40;;;3.30;;
9160;SDS011;4615;51.340;8.288;2023-12-20T12:14:15;7.30;;;3.50;;
9160;SDS011;4615;51.340;8.288;2023-12-20T12:16:42;7.32;;;3.28;;
9160;SDS011;4615;51.340;8.288;2023-12-20T12:19:19;6.20;;;3.15;;
9160;SDS011;4615;51.340;8.288;2023-12-20T12:21:47;7.00;;;3.50;;
9160;SDS011;4615;51.340;8.288;2023-12-20T12:24:13;9.65;;;3.85;;
9160;SDS011;4615;51.340;8.288;2023-12-20T12:26:39;7.30;;;3.80;;
9160;SDS011;4615;51.340;8.288;2023-12-20T12:29:07;9.00;;;4.00;;
9160;SDS011;4615;51.340;8.288;2023-12-20T12:31:33;8.00;;;3.72;;
9160;SDS011;4615;51.340;8.288;2023-12-20T12:33:59;6.70;;;3.92;;
9160;SDS011;4615;51.340;8.288;2023-12-20T12:36:26;10.13;;;4.30;;
9160;SDS011;4615;51.340;8.288;2023-12-20T12:38:57;8.43;;;3.93;;
9160;SDS011;4615;51.340;8.288;2023-12-20T12:41:23;9.25;;;4.10;;
9160;SDS011;4615;51.340;8.288;2023-12-20T12:43:50;9.38;;;3.97;;
9160;SDS011;4615;51.340;8.288;2023-12-20T12:46:16;10.75;;;4.03;;
9160;SDS011;4615;51.340;8.288;2023-12-20T12:48:43;7.63;;;4.15;;
9160;SDS011;4615;51.340;8.288;2023-12-20T12:51:10;7.55;;;3.75;;
9160;SDS011;4615;51.340;8.288;2023-12-20T12:53:38;9.57;;;3.95;;
9160;SDS011;4615;51.340;8.288;2023-12-20T12:56:06;5.60;;;3.60;;
9160;SDS011;4615;51.340;8.288;2023-12-20T12:58:33;6.40;;;3.60;;
9160;SDS011;4615;51.340;8.288;2023-12-20T13:00:59;5.72;;;3.10;;
9160;SDS011;4615;51.340;8.288;2023-12-20T13:03:25;7.38;;;3.40;;
9160;SDS011;4615;51.340;8.288;2023-12-20T13:05:52;8.13;;;3.20;;
9160;SDS011;4615;51.340;8.288;2023-12-20T13:08:18;7.05;;;3.28;;
9160;SDS011;4615;51.340;8.288;2023-12-20T13:10:44;7.03;;;3.15;;
9160;SDS011;4615;51.340;8.288;2023-12-20T13:13:13;6.35;;;2.90;;
9160;SDS011;4615;51.340;8.288;2023-12-20T13:15:39;6.90;;;2.88;;
9160;SDS011;4615;51.340;8.288;2023-12-20T13:18:06;6.93;;;3.03;;
9160;SDS011;4615;51.340;8.288;2023-12-20T13:20:32;7.13;;;3.25;;
9160;SDS011;4615;51.340;8.288;2023-12-20T13:22:59;5.63;;;2.90;;
9160;SDS011;4615;51.340;8.288;2023-12-20T13:25:25;5.57;;;2.80;;
9160;SDS011;4615;51.340;8.288;2023-12-20T13:27:52;6.00;;;3.30;;
9160;SDS011;4615;51.340;8.288;2023-12-20T13:30:20;5.35;;;2.90;;
9160;SDS011;4615;51.340;8.288;2023-12-20T13:32:47;5.10;;;2.90;;
9160;SDS011;4615;51.340;8.288;2023-12-20T13:35:14;6.00;;;3.17;;
9160;SDS011;4615;51.340;8.288;2023-12-20T13:37:40;6.93;;;3.30;;
9160;SDS011;4615;51.340;8.288;2023-12-20T13:40:07;8.20;;;3.40;;
9160;SDS011;4615;51.340;8.288;2023-12-20T13:42:34;6.63;;;3.30;;
9160;SDS011;4615;51.340;8.288;2023-12-20T13:45:00;9.40;;;3.60;;
9160;SDS011;4615;51.340;8.288;2023-12-20T13:47:28;6.55;;;3.53;;
9160;SDS011;4615;51.340;8.288;2023-12-20T13:49:55;9.13;;;3.10;;
9160;SDS011;4615;51.340;8.288;2023-12-20T13:52:22;9.90;;;3.63;;
9160;SDS011;4615;51.340;8.288;2023-12-20T13:54:48;10.68;;;3.50;;
9160;SDS011;4615;51.340;8.288;2023-12-20T13:57:14;6.78;;;3.20;;
9160;SDS011;4615;51.340;8.288;2023-12-20T13:59:41;9.00;;;3.17;;
9160;SDS011;4615;51.340;8.288;2023-12-20T14:02:07;6.43;;;3.30;;
9160;SDS011;4615;51.340;8.288;2023-12-20T14:04:35;8.77;;;3.25;;
9160;SDS011;4615;51.340;8.288;2023-12-20T14:07:04;6.05;;;3.00;;
9160;SDS011;4615;51.340;8.288;2023-12-20T14:09:30;7.38;;;3.20;;
9160;SDS011;4615;51.340;8.288;2023-12-20T14:11:56;6.32;;;3.28;;
9160;SDS011;4615;51.340;8.288;2023-12-20T14:14:23;6.10;;;2.97;;
9160;SDS011;4615;51.340;8.288;2023-12-20T14:16:49;7.57;;;2.92;;
9160;SDS011;4615;51.340;8.288;2023-12-20T14:19:16;5.55;;;2.95;;
9160;SDS011;4615;51.340;8.288;2023-12-20T14:21:44;7.10;;;2.90;;
9160;SDS011;4615;51.340;8.288;2023-12-20T14:24:10;6.97;;;3.33;;
9160;SDS011;4615;51.340;8.288;2023-12-20T14:26:38;8.75;;;3.33;;
9160;SDS011;4615;51.340;8.288;2023-12-20T14:29:04;5.75;;;3.25;;
9160;SDS011;4615;51.340;8.288;2023-12-20T14:31:32;7.25;;;2.92;;
9160;SDS011;4615;51.340;8.288;2023-12-20T14:33:59;8.10;;;3.42;;
9160;SDS011;4615;51.340;8.288;2023-12-20T14:36:28;6.97;;;3.60;;
9160;SDS011;4615;51.340;8.288;2023-12-20T14:38:57;5.95;;;3.15;;
9160;SDS011;4615;51.340;8.288;2023-12-20T14:41:23;7.57;;;3.47;;
9160;SDS011;4615;51.340;8.288;2023-12-20T14:43:50;7.75;;;3.17;;
9160;SDS011;4615;51.340;8.288;2023-12-20T14:46:16;7.75;;;3.35;;
9160;SDS011;4615;51.340;8.288;2023-12-20T14:48:43;6.18;;;2.92;;
9160;SDS011;4615;51.340;8.288;2023-12-20T14:51:09;6.93;;;3.17;;
9160;SDS011;4615;51.340;8.288;2023-12-20T14:53:36;4.95;;;2.80;;
9160;SDS011;4615;51.340;8.288;2023-12-20T14:56:05;5.65;;;3.40;;
9160;SDS011;4615;51.340;8.288;2023-12-20T14:58:31;7.57;;;3.08;;
9160;SDS011;4615;51.340;8.288;2023-12-20T15:00:58;4.57;;;2.90;;
9160;SDS011;4615;51.340;8.288;2023-12-20T15:03:25;4.72;;;2.90;;
9160;SDS011;4615;51.340;8.288;2023-12-20T15:05:51;5.57;;;3.08;;
9160;SDS011;4615;51.340;8.288;2023-12-20T15:08:18;3.88;;;2.70;;
9160;SDS011;4615;51.340;8.288;2023-12-20T15:10:44;4.50;;;2.80;;